Main page
Satellite images 15-day forecastsClimateMarine weather Cyclones Lightning AirportsFAQ Newsletter About
Weather : Europe Africa North America South America Asia Australia-Oceania Others
Languages Contact

Bordeaux, France

Merignac

latitude: 44-50N, longitude: 000-42W, elevation: 49 m


METAR: LFBD 311430Z AUTO 10008KT 9999 NSC 25/12 Q1019
TAF: LFBD 311100Z 3112/0118 13008KT CAVOK BECMG 0108/0110 29008KT PROB30 TEMPO 0106/0110 3000 BR BKN005 BECMG 0112/0115 SCT030 SCT250

Time: 15:49 (14:49 UTC)

Current weather observation

The report was made 19 minutes ago, at 14:30 UTC
Wind 8 kt from the East
Temperature 25°C
Humidity 44%
Pressure 1019 hPa
Visibility 10 km or more

Change units

Forecast

The report was made 3 hours and 49 minutes ago, at 11:00 UTC
Forecast valid from 31 at 12 UTC to 01 at 18 UTC
Wind 8 kt from the Southeast
Visibility 10 km or more
no clouds below 1500 m and no cumulonimbus
Becoming
from 01 at 08 UTC to 01 at 10 UTC
Wind 8 kt from the West/Northwest
Probability 30% :
Temporary
from 01 at 06 UTC to 01 at 10 UTC
Visibility: 3000 m
Broken clouds at a height of 500 ft
mist
Becoming
from 01 at 12 UTC to 01 at 15 UTC
Scattered clouds at a height of 3000 ft
Scattered clouds at a height of 25000 ft
The information on this site is subject to a disclaimer
Weather : Europe Africa North America South America Asia Australia-Oceania Others
Satellite images 15-day forecastsClimateMarine weather Cyclones Lightning AirportsFAQ Languages Contact Newsletter About